Time;durP1;ratioP1;P1;durP2;ratioP2;P2;SDS_P1;SDS_P2;PMS_P1;PMS_P2;Temp;Humidity;BMP_temperature;BMP_pressure;BME280_temperature;BME280_humidity;BME280_pressure;Samples;Min_cycle;Max_cycle;Signal;HPM_P1;HPM_P2
2022/11/28 00:01:56;;;;;;;63.33;33.58;;;;;;;1.84;90.35;100042.45;1784438;80;21464;-44
2022/11/28 00:04:22;;;;;;;64.92;34.10;;;;;;;1.83;90.34;100042.02;1784385;80;20955;-46
2022/11/28 00:06:49;;;;;;;62.65;33.00;;;;;;;1.83;90.33;100036.83;1784385;80;21396;-46
2022/11/28 00:09:17;;;;;;;65.40;33.58;;;;;;;1.83;90.38;100039.42;1784481;80;20983;-51
2022/11/28 00:11:45;;;;;;;61.30;33.23;;;;;;;1.83;90.51;100035.53;1784459;80;21050;-42
2022/11/28 00:14:12;;;;;;;60.55;33.18;;;;;;;1.83;90.43;100032.49;1789926;80;20998;-52
2022/11/28 00:16:38;;;;;;;63.10;32.17;;;;;;;1.82;90.48;100027.31;1790394;80;20986;-48
2022/11/28 00:19:05;;;;;;;60.20;31.20;;;;;;;1.81;90.12;100031.66;1790303;80;21819;-53
2022/11/28 00:21:32;;;;;;;63.40;31.93;;;;;;;1.81;90.13;100025.17;1790304;80;21038;-47
2022/11/28 00:23:59;;;;;;;59.13;33.10;;;;;;;1.80;90.21;100018.28;1790399;80;20987;-47
2022/11/28 00:26:29;;;;;;;62.75;30.92;;;;;;;1.79;89.95;100023.03;1790219;80;21456;-42
2022/11/28 00:28:57;;;;;;;62.83;31.17;;;;;;;1.76;89.79;100017.85;1754093;82;21097;-48
2022/11/28 00:31:27;;;;;;;57.88;29.25;;;;;;;1.75;89.73;100022.63;1787252;80;21045;-51
2022/11/28 00:33:53;;;;;;;59.18;30.60;;;;;;;1.74;89.72;100023.49;1826336;78;21444;-50
2022/11/28 00:36:20;;;;;;;61.20;31.63;;;;;;;1.75;89.71;100022.63;1826379;78;20987;-49
2022/11/28 00:38:46;;;;;;;64.60;31.55;;;;;;;1.75;89.85;100027.82;1826099;78;20954;-45
2022/11/28 00:41:22;;;;;;;59.77;29.85;;;;;;;1.73;89.76;100023.08;1826379;78;21514;-47
2022/11/28 00:43:50;;;;;;;59.38;31.55;;;;;;;1.73;89.50;100020.05;1790190;80;21030;-49
2022/11/28 00:46:17;;;;;;;59.25;31.40;;;;;;;1.69;89.45;100014.47;1756076;81;20991;-47
2022/11/28 00:48:43;;;;;;;;;;;;;;;1.66;89.38;100013.19;1771642;81;21904;-52
2022/11/28 00:51:22;;;;;;;55.83;29.12;;;;;;;1.64;89.42;100005.01;1762531;81;20138;-44
2022/11/28 00:53:50;;;;;;;59.98;30.85;;;;;;;1.65;89.45;100001.52;1762520;81;21026;-42
2022/11/28 00:56:20;;;;;;;56.88;29.92;;;;;;;1.62;89.65;100001.12;1762562;81;21017;-50
2022/11/28 00:58:48;;;;;;;56.95;29.82;;;;;;;1.63;89.82;99996.79;1762527;81;20963;-49
2022/11/28 01:01:19;;;;;;;61.63;29.95;;;;;;;1.63;89.51;99993.75;1762526;81;21005;-44
2022/11/28 01:03:46;;;;;;;55.10;28.92;;;;;;;1.64;89.56;99990.75;1759644;81;21579;-45
2022/11/28 01:06:22;;;;;;;61.18;29.30;;;;;;;1.64;89.46;99987.71;1762553;81;21473;-49
2022/11/28 01:08:48;;;;;;;55.45;28.20;;;;;;;1.65;89.35;99984.67;1761524;81;21007;-45
2022/11/28 01:11:13;;;;;;;55.30;28.45;;;;;;;1.63;89.37;99982.53;1762501;81;21038;-47
2022/11/28 01:13:40;;;;;;;58.68;27.95;;;;;;;1.63;89.15;99983.38;1750038;81;21028;-47
2022/11/28 01:16:07;;;;;;;53.78;27.85;;;;;;;1.62;89.18;99990.75;1745192;81;21004;-40
2022/11/28 01:18:32;;;;;;;53.25;26.97;;;;;;;1.59;89.12;99988.17;1745221;82;21555;-47
2022/11/28 01:20:58;;;;;;;56.05;29.10;;;;;;;1.58;89.43;99986.88;1745129;82;21003;-49
2022/11/28 01:23:24;;;;;;;53.45;27.80;;;;;;;1.58;89.43;99986.88;1745126;82;20992;-49
2022/11/28 01:25:50;;;;;;;57.25;28.70;;;;;;;1.54;89.05;99982.16;1745092;82;21018;-53
2022/11/28 01:28:16;;;;;;;50.12;26.87;;;;;;;1.57;89.01;99980.00;1745135;82;21034;-54
2022/11/28 01:30:42;;;;;;;53.98;27.07;;;;;;;1.54;89.15;99977.83;1745118;81;21000;-44
2022/11/28 01:33:07;;;;;;;56.88;28.55;;;;;;;1.53;89.32;99971.38;1745071;82;21011;-44
2022/11/28 01:35:33;;;;;;;50.60;27.67;;;;;;;1.57;89.30;99969.19;1745124;82;21046;-49
2022/11/28 01:37:59;;;;;;;57.27;28.80;;;;;;;1.56;88.97;99956.23;1745112;82;21047;-42
2022/11/28 01:40:25;;;;;;;54.93;28.32;;;;;;;1.54;88.78;99965.31;1745125;82;20987;-46
2022/11/28 01:42:51;;;;;;;58.45;28.85;;;;;;;1.56;88.94;99961.41;1745118;82;20976;-49
2022/11/28 01:45:24;;;;;;;63.02;30.15;;;;;;;1.56;88.93;99960.97;1745055;82;20988;-45
2022/11/28 01:47:52;;;;;;;61.18;29.23;;;;;;;1.59;88.88;99961.40;1745083;81;20999;-49
2022/11/28 01:50:21;;;;;;;66.62;30.20;;;;;;;1.58;88.96;99954.03;1745176;82;21004;-46
2022/11/28 01:52:52;;;;;;;61.35;29.12;;;;;;;1.58;88.85;99955.33;1745102;81;20976;-47
2022/11/28 01:55:22;;;;;;;57.15;29.20;;;;;;;1.57;88.82;99947.15;1745176;82;21004;-48
2022/11/28 01:57:48;;;;;;;58.98;30.08;;;;;;;1.56;88.99;99944.12;1745138;82;21035;-46
2022/11/28 02:00:18;;;;;;;60.23;29.42;;;;;;;1.55;88.70;99943.72;1745150;81;20991;-46
2022/11/28 02:02:58;;;;;;;62.93;29.82;;;;;;;1.51;88.76;99941.58;1745083;82;21031;-50
2022/11/28 02:05:24;;;;;;;64.25;29.27;;;;;;;1.52;88.80;99932.91;1743831;82;20975;-51
2022/11/28 02:07:50;;;;;;;53.87;29.05;;;;;;;1.53;88.97;99929.91;1745100;82;21003;-45
2022/11/28 02:10:28;;;;;;;52.27;28.40;;;;;;;1.56;89.05;99929.02;1745118;81;21008;-53
2022/11/28 02:13:17;;;;;;;49.63;27.40;;;;;;;1.52;88.90;99929.02;1744161;81;21038;-41
2022/11/28 02:16:25;;;;;;;51.88;26.73;;;;;;;1.53;89.18;99921.69;1744131;82;21525;-41
2022/11/28 02:19:16;;;;;;;55.08;27.35;;;;;;;1.51;89.07;99919.55;1744602;82;20988;-44
2022/11/28 02:21:56;;;;;;;47.95;25.50;;;;;;;1.51;88.82;99916.08;1745120;81;21004;-53
2022/11/28 02:25:10;;;;;;;56.53;28.55;;;;;;;1.51;88.69;99913.48;1744270;82;20968;-45
2022/11/28 02:28:08;;;;;;;53.48;27.13;;;;;;;1.49;88.78;99913.52;1711022;82;20988;-51
2022/11/28 02:31:04;;;;;;;53.83;26.62;;;;;;;1.49;88.84;99920.00;1745118;81;21003;-48
2022/11/28 02:33:46;;;;;;;55.88;27.73;;;;;;;1.48;88.85;99913.53;1744247;82;21023;-53
2022/11/28 02:36:29;;;;;;;51.73;26.60;;;;;;;1.47;88.74;99908.76;1745174;81;21516;-49
2022/11/28 02:39:16;;;;;;;49.38;25.92;;;;;;;1.46;88.73;99904.47;1744455;82;21000;-51
2022/11/28 02:41:57;;;;;;;55.15;25.27;;;;;;;1.44;88.87;99904.92;1716506;77;21126;-50
2022/11/28 02:44:37;;;;;;;50.50;26.17;;;;;;;1.48;89.09;99902.72;1707081;84;21531;-50
2022/11/28 02:47:14;;;;;;;51.30;26.35;;;;;;;1.49;89.15;99897.97;1706657;84;20976;-54
2022/11/28 02:50:02;;;;;;;;;;;;;;;1.50;89.07;99900.97;1709712;84;21016;-54
2022/11/28 02:52:35;;;;;;;50.17;24.23;;;;;;;1.50;89.16;99891.89;1706172;84;20141;-52
2022/11/28 02:55:03;;;;;;;53.25;25.10;;;;;;;1.57;89.07;99886.67;1706157;84;21023;-46
2022/11/28 02:57:48;;;;;;;49.55;23.60;;;;;;;1.63;89.26;99884.02;1707118;84;21023;-46
2022/11/28 03:00:31;;;;;;;54.42;24.72;;;;;;;1.66;88.93;99884.84;1707089;84;20976;-47
2022/11/28 03:03:09;;;;;;;45.25;24.32;;;;;;;1.71;88.83;99883.48;1697027;84;21468;-51
2022/11/28 03:05:44;;;;;;;;;;;;;;;1.73;88.71;99881.32;1709633;84;21516;-45
2022/11/28 03:08:38;;;;;;;46.30;25.57;;;;;;;1.75;88.50;99882.61;1706886;84;21162;-55
2022/11/28 03:11:28;;;;;;;61.85;30.45;;;;;;;1.79;88.39;99875.21;1707293;84;21011;-46
2022/11/28 03:14:18;;;;;;;69.07;31.82;;;;;;;1.84;88.35;99879.92;1707180;84;20995;-50
2022/11/28 03:17:17;;;;;;;63.08;31.23;;;;;;;1.86;88.20;99871.68;1707176;84;21040;-48
2022/11/28 03:20:00;;;;;;;51.58;25.65;;;;;;;1.90;87.91;99874.66;1706923;84;20983;-54
2022/11/28 03:22:43;;;;;;;46.58;23.18;;;;;;;1.93;87.88;99873.78;1707106;84;21004;-50
2022/11/28 03:25:46;;;;;;;41.55;22.13;;;;;;;1.95;87.76;99881.52;1707189;84;21504;-51
2022/11/28 03:28:41;;;;;;;37.85;19.32;;;;;;;1.99;87.62;99877.59;1707185;84;21023;-46
2022/11/28 03:31:12;;;;;;;43.63;21.73;;;;;;;2.01;87.07;99871.09;1706888;84;21039;-43
2022/11/28 03:33:43;;;;;;;43.42;22.90;;;;;;;1.99;86.89;99866.38;1707166;84;21014;-43
2022/11/28 03:36:17;;;;;;;44.73;23.45;;;;;;;1.88;86.57;99868.62;1707074;84;21051;-49
2022/11/28 03:38:54;;;;;;;49.73;23.85;;;;;;;1.95;86.68;99864.25;1707207;84;20992;-54
2022/11/28 03:41:40;;;;;;;56.90;28.02;;;;;;;1.95;86.29;99868.14;1706509;84;20995;-47
2022/11/28 03:44:10;;;;;;;71.77;33.37;;;;;;;1.96;86.50;99866.39;1676505;84;20971;-42
2022/11/28 03:46:42;;;;;;;69.72;34.35;;;;;;;1.97;86.41;99860.34;1694473;84;20995;-50
2022/11/28 03:49:10;;;;;;;57.08;29.10;;;;;;;1.95;86.46;99860.36;1695961;84;21054;-53
2022/11/28 03:51:47;;;;;;;54.03;27.98;;;;;;;1.95;86.22;99862.06;1695524;84;21023;-49
2022/11/28 03:54:24;;;;;;;49.90;25.40;;;;;;;1.97;86.37;99854.70;1676703;84;20955;-50
2022/11/28 03:56:58;;;;;;;47.95;24.50;;;;;;;1.97;86.23;99857.75;1696416;84;21637;-50
2022/11/28 03:59:35;;;;;;;47.67;24.30;;;;;;;2.00;86.03;99859.88;1689724;84;20994;-47
2022/11/28 04:02:34;;;;;;;53.02;24.40;;;;;;;2.01;86.02;99864.61;1696389;84;21492;-43
2022/11/28 04:05:23;;;;;;;46.15;24.43;;;;;;;2.04;86.05;99862.00;1696262;84;21002;-44
2022/11/28 04:08:24;;;;;;;46.37;23.57;;;;;;;2.06;85.59;99866.72;1696285;84;21543;-47
2022/11/28 04:10:58;;;;;;;43.78;22.22;;;;;;;2.06;85.75;99858.49;1676507;84;20963;-55
2022/11/28 04:13:34;;;;;;;43.02;23.42;;;;;;;2.10;85.61;99859.31;1644472;84;21002;-46
2022/11/28 04:16:23;;;;;;;47.25;25.10;;;;;;;2.14;85.40;99861.44;1694910;84;20964;-45
2022/11/28 04:19:15;;;;;;;52.58;25.97;;;;;;;2.18;85.65;99861.37;1696386;84;21606;-53
2022/11/28 04:21:53;;;;;;;48.33;25.45;;;;;;;2.18;84.91;99857.47;1696415;83;21559;-47
2022/11/28 04:24:24;;;;;;;42.15;22.85;;;;;;;2.25;85.14;99858.27;1696361;84;20994;-43
2022/11/28 04:27:01;;;;;;;41.63;21.95;;;;;;;2.28;85.08;99859.09;1696317;84;21058;-48
2022/11/28 04:29:32;;;;;;;43.30;21.70;;;;;;;2.29;84.73;99855.63;1676714;84;20971;-47
2022/11/28 04:31:59;;;;;;;42.70;21.12;;;;;;;2.32;84.62;99855.17;1696478;84;20975;-44
2022/11/28 04:34:28;;;;;;;40.65;20.27;;;;;;;2.38;84.82;99852.48;1696514;84;21495;-50
2022/11/28 04:36:57;;;;;;;40.20;19.82;;;;;;;2.36;84.49;99844.71;1696352;84;21034;-55
2022/11/28 04:39:25;;;;;;;37.63;19.23;;;;;;;2.41;84.57;99848.56;1696308;84;21050;-47
2022/11/28 04:41:58;;;;;;;38.25;19.17;;;;;;;2.48;84.75;99847.60;1698236;84;21414;-47
2022/11/28 04:44:32;;;;;;;36.70;19.82;;;;;;;2.50;84.61;99843.24;1705778;84;21012;-47
2022/11/28 04:46:59;;;;;;;35.00;19.20;;;;;;;2.57;85.04;99837.09;1707299;84;21007;-50
2022/11/28 04:49:27;;;;;;;37.23;18.73;;;;;;;2.60;84.66;99845.27;1707119;84;20984;-47
2022/11/28 04:52:01;;;;;;;36.73;17.90;;;;;;;2.63;84.62;99846.08;1707185;84;21011;-47
2022/11/28 04:54:54;;;;;;;35.10;18.57;;;;;;;2.64;84.55;99840.47;1706878;84;20996;-48
2022/11/28 04:57:45;;;;;;;35.43;17.17;;;;;;;2.65;84.47;99843.47;1707192;84;21553;-46
2022/11/28 05:00:15;;;;;;;34.67;18.67;;;;;;;2.69;84.87;99847.31;1682029;84;21004;-48
2022/11/28 05:02:43;;;;;;;38.48;18.73;;;;;;;2.74;85.00;99845.93;1707179;84;21003;-48
2022/11/28 05:05:16;;;;;;;43.83;21.07;;;;;;;2.75;84.84;99850.67;1707145;84;21043;-53
2022/11/28 05:07:42;;;;;;;35.52;18.45;;;;;;;2.72;84.54;99850.73;1707163;84;21019;-52
2022/11/28 05:10:12;;;;;;;39.00;18.87;;;;;;;2.69;84.73;99846.02;1707071;84;21019;-46
2022/11/28 05:12:38;;;;;;;38.23;18.25;;;;;;;2.78;84.95;99849.34;1707137;84;20980;-47
2022/11/28 05:15:05;;;;;;;36.73;19.87;;;;;;;2.76;85.04;99847.20;1707246;84;21496;-52
2022/11/28 05:17:31;;;;;;;37.00;18.87;;;;;;;2.78;85.37;99840.25;1707261;84;21027;-46
2022/11/28 05:19:57;;;;;;;35.83;17.95;;;;;;;2.81;85.33;99828.52;1707145;84;21015;-47
2022/11/28 05:22:23;;;;;;;33.18;18.65;;;;;;;2.81;85.33;99828.52;1707122;84;20987;-48
2022/11/28 05:24:49;;;;;;;33.48;19.45;;;;;;;2.87;85.58;99840.99;1707005;84;21047;-46
2022/11/28 05:27:15;;;;;;;40.08;20.12;;;;;;;2.89;85.35;99839.64;1707142;84;20980;-47
2022/11/28 05:29:43;;;;;;;37.08;18.50;;;;;;;2.94;85.30;99841.73;1707128;84;21015;-51
2022/11/28 05:32:14;;;;;;;;;;;;;;;2.95;85.13;99842.58;1709815;84;20980;-46
2022/11/28 05:34:40;;;;;;;32.40;16.82;;;;;;;2.94;84.97;99843.03;1707148;83;20427;-50
2022/11/28 05:37:06;;;;;;;32.75;18.25;;;;;;;2.96;85.14;99839.97;1707102;84;21012;-56
2022/11/28 05:39:32;;;;;;;35.38;18.02;;;;;;;2.99;85.06;99845.12;1707133;84;20995;-46
2022/11/28 05:41:58;;;;;;;36.42;17.90;;;;;;;2.99;84.94;99846.42;1705870;84;21011;-53
2022/11/28 05:44:24;;;;;;;33.92;17.15;;;;;;;2.98;84.88;99835.60;1696445;84;21487;-45
2022/11/28 05:46:50;;;;;;;35.58;18.55;;;;;;;3.00;84.93;99845.56;1696345;84;21043;-47
2022/11/28 05:49:17;;;;;;;42.08;18.42;;;;;;;2.99;84.94;99848.17;1696350;84;21006;-46
2022/11/28 05:51:43;;;;;;;38.47;18.93;;;;;;;2.98;84.81;99845.14;1696554;84;21007;-52
2022/11/28 05:54:09;;;;;;;36.28;18.17;;;;;;;2.97;84.98;99849.94;1696488;84;21540;-50
2022/11/28 05:56:34;;;;;;;37.33;17.45;;;;;;;3.01;85.12;99850.30;1696436;84;21520;-51
2022/11/28 05:59:00;;;;;;;35.73;18.50;;;;;;;3.06;85.14;99844.16;1696396;84;21003;-48
2022/11/28 06:01:28;;;;;;;40.23;19.37;;;;;;;3.08;85.05;99842.38;1696392;83;20999;-47
2022/11/28 06:03:59;;;;;;;41.55;19.12;;;;;;;3.10;85.17;99842.81;1696503;83;20983;-44
2022/11/28 06:06:31;;;;;;;44.35;22.05;;;;;;;3.10;85.13;99838.46;1696352;84;21022;-51
2022/11/28 06:08:57;;;;;;;36.38;20.50;;;;;;;3.12;85.14;99827.59;1696427;84;21039;-52
2022/11/28 06:11:26;;;;;;;41.77;20.97;;;;;;;3.04;85.00;99842.02;1696397;84;21479;-51
2022/11/28 06:13:52;;;;;;;45.83;21.15;;;;;;;3.03;85.15;99836.39;1696347;84;20991;-51
2022/11/28 06:16:21;;;;;;;38.28;19.98;;;;;;;3.03;85.26;99838.99;1676435;84;21483;-50
2022/11/28 06:18:53;;;;;;;40.85;20.43;;;;;;;3.01;85.37;99831.66;1696303;84;21534;-47
2022/11/28 06:21:20;;;;;;;47.98;22.25;;;;;;;3.03;85.38;99835.09;1696335;84;21014;-43
2022/11/28 06:23:46;;;;;;;49.18;22.82;;;;;;;3.01;85.62;99836.02;1696582;84;21058;-47
2022/11/28 06:26:15;;;;;;;44.83;21.82;;;;;;;3.01;85.66;99830.81;1696293;84;21053;-45
2022/11/28 06:28:41;;;;;;;41.85;21.05;;;;;;;3.03;85.75;99825.16;1696298;84;20975;-45
2022/11/28 06:31:15;;;;;;;48.30;22.13;;;;;;;2.99;85.79;99834.73;1696314;84;21019;-54
2022/11/28 06:33:41;;;;;;;43.73;22.05;;;;;;;2.99;85.71;99835.19;1696299;84;21051;-57
2022/11/28 06:36:08;;;;;;;49.45;22.93;;;;;;;2.96;85.84;99837.38;1696291;84;21024;-48
2022/11/28 06:38:34;;;;;;;;;;;;;;;2.94;86.06;99834.39;1698875;84;20979;-42
2022/11/28 06:41:05;;;;;;;45.80;22.45;;;;;;;2.94;86.16;99834.39;1696377;84;20106;-49
2022/11/28 06:43:31;;;;;;;49.13;22.93;;;;;;;2.97;86.10;99837.80;1696233;84;21570;-43
2022/11/28 06:45:57;;;;;;;48.00;23.12;;;;;;;2.95;86.16;99834.79;1696201;83;21046;-46
2022/11/28 06:48:24;;;;;;;47.50;22.07;;;;;;;2.96;86.08;99832.63;1696274;84;20986;-54
2022/11/28 06:50:50;;;;;;;46.28;22.13;;;;;;;2.96;86.34;99836.07;1696301;84;21046;-47
2022/11/28 06:53:17;;;;;;;43.38;21.00;;;;;;;2.99;86.31;99835.19;1696437;84;21010;-51
2022/11/28 06:55:44;;;;;;;44.15;22.30;;;;;;;3.01;86.11;99829.52;1696421;84;20998;-50
2022/11/28 06:58:10;;;;;;;43.52;21.52;;;;;;;3.01;86.12;99835.56;1696426;84;21001;-43
2022/11/28 07:00:36;;;;;;;44.70;22.17;;;;;;;3.01;86.01;99839.91;1696256;84;21006;-50
2022/11/28 07:03:02;;;;;;;47.93;23.25;;;;;;;3.00;86.18;99831.27;1696460;84;20995;-52
2022/11/28 07:05:29;;;;;;;54.93;24.45;;;;;;;3.00;86.06;99830.39;1696317;84;21551;-44
2022/11/28 07:07:57;;;;;;;46.50;21.33;;;;;;;3.00;86.05;99831.27;1696501;84;20991;-46
2022/11/28 07:10:24;;;;;;;41.25;19.50;;;;;;;2.98;85.89;99821.31;1695264;84;21559;-52
2022/11/28 07:12:59;;;;;;;42.83;19.30;;;;;;;3.00;86.15;99824.77;1696362;84;21034;-48
2022/11/28 07:15:26;;;;;;;39.05;20.80;;;;;;;3.06;86.14;99828.56;1696498;84;21015;-47
2022/11/28 07:17:52;;;;;;;48.80;22.85;;;;;;;3.06;86.12;99828.56;1696245;84;21006;-52
2022/11/28 07:20:19;;;;;;;46.75;21.75;;;;;;;3.12;86.21;99830.20;1696570;84;21633;-46
2022/11/28 07:22:46;;;;;;;50.43;21.60;;;;;;;3.14;86.10;99828.43;1696481;84;20998;-48
2022/11/28 07:25:13;;;;;;;48.80;20.48;;;;;;;3.17;86.03;99814.55;1696289;84;21006;-45
2022/11/28 07:27:41;;;;;;;37.58;17.70;;;;;;;3.17;85.91;99819.73;1696345;84;21515;-45
2022/11/28 07:30:07;;;;;;;;;;;;;;;3.18;85.78;99817.54;1698904;84;21011;-44
2022/11/28 07:32:33;;;;;;;47.80;19.80;;;;;;;3.21;85.92;99815.75;1696527;84;20107;-47
2022/11/28 07:34:59;;;;;;;46.28;19.60;;;;;;;3.27;85.79;99812.19;1696301;83;21519;-51
2022/11/28 07:37:25;;;;;;;48.78;18.82;;;;;;;3.29;85.46;99809.11;1696317;84;21590;-52
2022/11/28 07:39:50;;;;;;;50.50;18.10;;;;;;;3.30;85.33;99809.99;1696371;84;21010;-50
2022/11/28 07:42:16;;;;;;;47.30;18.75;;;;;;;3.32;85.34;99806.92;1696429;83;21010;-51
2022/11/28 07:44:42;;;;;;;39.88;17.50;;;;;;;3.35;85.42;99806.42;1704207;84;21036;-50
2022/11/28 07:47:08;;;;;;;48.92;18.48;;;;;;;3.34;85.21;99802.09;1704369;84;21005;-47
2022/11/28 07:49:34;;;;;;;47.20;17.92;;;;;;;3.37;85.28;99797.30;1704187;84;21006;-44
2022/11/28 07:51:59;;;;;;;43.08;17.35;;;;;;;3.42;85.41;99798.05;1704183;83;21070;-48
2022/11/28 07:54:25;;;;;;;47.33;18.40;;;;;;;3.48;85.20;99802.31;1704275;84;21006;-47
2022/11/28 07:56:51;;;;;;;38.78;17.23;;;;;;;3.54;85.34;99806.94;1704131;84;21479;-53
2022/11/28 07:59:17;;;;;;;48.80;19.30;;;;;;;3.54;84.90;99795.69;1704248;83;21050;-47
2022/11/28 08:01:42;;;;;;;40.88;17.30;;;;;;;3.52;84.62;99793.56;1704375;84;21050;-49
2022/11/28 08:04:09;;;;;;;34.67;15.45;;;;;;;3.52;84.62;99793.56;1704150;84;21014;-51
2022/11/28 08:06:38;;;;;;;37.67;16.10;;;;;;;3.57;84.61;99795.64;1704248;84;21006;-47
2022/11/28 08:09:06;;;;;;;34.48;14.85;;;;;;;3.60;84.63;99782.56;1702080;84;20998;-42
2022/11/28 08:11:32;;;;;;;36.85;16.93;;;;;;;3.67;84.56;99788.06;1703770;84;21451;-44
2022/11/28 08:13:59;;;;;;;37.03;16.97;;;;;;;3.68;84.16;99787.64;1704547;84;21475;-45
2022/11/28 08:16:27;;;;;;;35.83;17.02;;;;;;;3.75;84.44;99786.64;1704020;83;21010;-42
2022/11/28 08:18:55;;;;;;;33.90;15.43;;;;;;;3.80;84.31;99787.37;1704161;84;21014;-45
2022/11/28 08:21:25;;;;;;;34.92;16.48;;;;;;;3.80;83.83;99786.95;1703972;84;21054;-40
2022/11/28 08:23:53;;;;;;;28.75;14.90;;;;;;;3.85;83.85;99789.45;1704047;84;21062;-42
2022/11/28 08:26:22;;;;;;;34.75;16.48;;;;;;;3.83;83.55;99779.52;1704079;83;21009;-49
2022/11/28 08:28:50;;;;;;;36.00;17.30;;;;;;;3.89;83.76;99790.25;1704203;84;21570;-41
2022/11/28 08:31:21;;;;;;;40.45;20.00;;;;;;;3.95;84.13;99788.39;1703654;84;21089;-47
2022/11/28 08:33:50;;;;;;;46.15;22.10;;;;;;;3.97;83.79;99794.41;1704225;84;21014;-43
2022/11/28 08:36:18;;;;;;;37.13;20.40;;;;;;;3.96;83.84;99795.75;1704164;84;21014;-39
2022/11/28 08:38:46;;;;;;;49.20;23.45;;;;;;;3.98;83.88;99788.76;1703998;84;21021;-45
2022/11/28 08:41:18;;;;;;;63.60;30.60;;;;;;;4.00;83.94;99791.77;1704137;84;21014;-43
2022/11/28 08:43:45;;;;;;;40.63;19.67;;;;;;;3.95;83.17;99790.99;1700216;84;21058;-46
2022/11/28 08:46:15;;;;;;;36.45;19.67;;;;;;;4.01;83.55;99790.01;1676493;84;21111;-48
2022/11/28 08:48:42;;;;;;;40.60;19.40;;;;;;;4.05;83.54;99790.34;1696255;84;20990;-48
2022/11/28 08:51:13;;;;;;;35.68;18.48;;;;;;;3.99;83.66;99790.48;1696241;84;21009;-49
2022/11/28 08:53:40;;;;;;;40.25;19.02;;;;;;;4.01;83.57;99791.31;1696276;84;20986;-58
2022/11/28 08:56:06;;;;;;;36.48;18.55;;;;;;;3.99;83.26;99795.69;1696435;84;21487;-50
2022/11/28 08:58:32;;;;;;;39.95;18.67;;;;;;;4.02;83.45;99798.20;1696268;84;20971;-48
2022/11/28 09:00:58;;;;;;;34.25;17.48;;;;;;;4.03;83.64;99789.07;1696272;84;20991;-52
2022/11/28 09:03:24;;;;;;;39.50;18.77;;;;;;;4.06;83.30;99785.57;1696168;84;21043;-53
2022/11/28 09:05:50;;;;;;;37.98;18.65;;;;;;;4.09;82.64;99778.13;1696148;84;21010;-49
2022/11/28 09:08:19;;;;;;;34.03;17.52;;;;;;;4.05;82.32;99770.83;1696160;84;20987;-46
2022/11/28 09:10:45;;;;;;;37.88;17.02;;;;;;;4.11;82.64;99778.53;1696343;84;20963;-52
2022/11/28 09:13:13;;;;;;;30.70;16.63;;;;;;;4.16;82.63;99776.66;1696540;84;21009;-55
2022/11/28 09:15:43;;;;;;;38.92;19.23;;;;;;;4.17;81.65;99769.73;1696200;84;21464;-56
2022/11/28 09:18:12;;;;;;;38.08;18.75;;;;;;;4.20;81.81;99773.13;1696030;84;21030;-49
2022/11/28 09:20:38;;;;;;;39.88;19.67;;;;;;;4.15;81.73;99766.30;1696278;84;21058;-47
2022/11/28 09:23:05;;;;;;;39.90;19.65;;;;;;;4.18;81.82;99768.40;1696308;83;21152;-50
2022/11/28 09:25:30;;;;;;;37.40;16.87;;;;;;;4.21;81.41;99762.26;1696485;84;21002;-52
2022/11/28 09:27:56;;;;;;;34.48;17.27;;;;;;;4.17;80.82;99760.16;1676300;84;21406;-51
2022/11/28 09:30:22;;;;;;;31.85;16.23;;;;;;;4.19;80.73;99759.69;1695866;84;20986;-49
2022/11/28 09:32:50;;;;;;;36.85;17.80;;;;;;;4.22;80.93;99762.23;1696280;83;21049;-53
2022/11/28 09:35:16;;;;;;;;;;;;;;;4.23;80.89;99761.32;1698085;84;20987;-54
2022/11/28 09:37:42;;;;;;;28.63;15.50;;;;;;;4.13;79.63;99755.92;1696510;83;20111;-47
2022/11/28 09:40:35;;;;;;;37.25;18.85;;;;;;;4.22;80.42;99754.42;1696047;84;20999;-46
2022/11/28 09:43:03;;;;;;;27.35;14.78;;;;;;;4.17;79.78;99754.11;1696056;84;21003;-51
2022/11/28 09:45:30;;;;;;;32.38;17.17;;;;;;;4.23;79.45;99756.56;1695960;83;21527;-52
2022/11/28 09:48:00;;;;;;;36.95;17.92;;;;;;;4.29;80.25;99749.06;1696377;84;20991;-51
2022/11/28 09:50:33;;;;;;;30.32;16.15;;;;;;;4.37;80.60;99747.16;1696123;84;21547;-52
2022/11/28 09:53:25;;;;;;;30.23;16.93;;;;;;;4.44;80.94;99751.34;1695015;83;21504;-51
2022/11/28 09:56:13;;;;;;;37.73;19.80;;;;;;;4.45;80.26;99742.62;1696213;84;20979;-52
2022/11/28 09:58:54;;;;;;;24.12;15.58;;;;;;;4.44;79.92;99743.53;1696238;84;21003;-45
2022/11/28 10:01:34;;;;;;;35.52;18.48;;;;;;;4.53;80.18;99736.80;1690374;83;21472;-44
2022/11/28 10:04:09;;;;;;;37.55;21.77;;;;;;;4.53;79.79;99732.89;1695635;84;21524;-53
2022/11/28 10:06:46;;;;;;;33.10;17.55;;;;;;;4.52;78.72;99740.28;1695620;84;20971;-48
2022/11/28 10:09:52;;;;;;;30.88;18.27;;;;;;;4.58;79.57;99729.73;1690683;84;20975;-49
2022/11/28 10:12:48;;;;;;;34.80;17.70;;;;;;;4.59;78.87;99731.44;1690646;84;21007;-53
2022/11/28 10:15:38;;;;;;;30.15;15.50;;;;;;;4.56;78.38;99721.53;1689524;84;20980;-49
2022/11/28 10:18:13;;;;;;;27.93;15.65;;;;;;;4.64;78.72;99722.22;1690319;84;20983;-48
2022/11/28 10:20:43;;;;;;;27.65;14.03;;;;;;;4.59;77.35;99719.72;1689488;85;21007;-52
2022/11/28 10:23:43;;;;;;;26.77;14.53;;;;;;;4.64;77.64;99720.04;1689086;85;21051;-51
2022/11/28 10:26:29;;;;;;;27.30;14.25;;;;;;;4.60;76.86;99717.95;1689129;83;22202;-48
2022/11/28 10:28:57;;;;;;;27.98;15.18;;;;;;;4.68;77.41;99712.13;1701188;82;21063;-51
2022/11/28 10:31:28;;;;;;;31.60;14.93;;;;;;;4.68;77.24;99713.43;1705740;83;20978;-46
2022/11/28 10:34:08;;;;;;;30.97;16.55;;;;;;;4.60;76.19;99709.72;1690545;84;21516;-53
2022/11/28 10:37:05;;;;;;;30.43;17.75;;;;;;;4.60;76.85;99711.02;1683607;84;21047;-55
2022/11/28 10:39:30;;;;;;;39.10;21.77;;;;;;;4.62;76.48;99708.38;1689747;84;21073;-51
2022/11/28 10:42:11;;;;;;;38.33;22.82;;;;;;;4.65;76.85;99715.25;1694409;84;21512;-51
2022/11/28 10:45:19;;;;;;;28.57;16.95;;;;;;;4.64;76.77;99710.92;1668017;84;21076;-47
2022/11/28 10:48:22;;;;;;;32.23;15.58;;;;;;;4.67;76.88;99712.16;1689435;85;21010;-49
2022/11/28 10:51:22;;;;;;;31.05;14.25;;;;;;;4.69;76.91;99713.82;1628421;87;21618;-56
2022/11/28 10:54:26;;;;;;;23.52;14.25;;;;;;;4.75;77.76;99707.17;1615110;87;21116;-52
2022/11/28 10:57:06;;;;;;;32.70;14.73;;;;;;;4.77;76.88;99708.45;1596336;89;21598;-45
2022/11/28 10:59:44;;;;;;;32.60;15.00;;;;;;;4.84;76.83;99704.80;1621824;87;21583;-55
2022/11/28 11:02:31;;;;;;;;;;;;;;;4.91;77.30;99699.84;1596087;89;21597;-50
2022/11/28 11:04:56;;;;;;;27.95;14.95;;;;;;;4.95;77.38;99700.62;1613410;89;20486;-46
2022/11/28 11:07:29;;;;;;;24.63;13.65;;;;;;;4.85;76.73;99699.13;1636606;87;21021;-43
2022/11/28 11:10:03;;;;;;;30.88;14.80;;;;;;;4.74;75.95;99695.48;1618634;87;21021;-44
2022/11/28 11:12:31;;;;;;;23.70;12.47;;;;;;;4.80;76.47;99695.31;1632248;86;21034;-47
2022/11/28 11:14:57;;;;;;;;;;;;;;;4.69;76.47;99696.89;1625044;87;21042;-43
2022/11/28 11:17:36;;;;;;;29.98;14.60;;;;;;;4.70;76.71;99696.47;1611179;89;20501;-44
2022/11/28 11:20:19;;;;;;;26.65;14.80;;;;;;;4.77;77.16;99691.05;1612558;89;21114;-39
2022/11/28 11:23:02;;;;;;;29.92;15.63;;;;;;;4.80;77.54;99690.98;1569223;89;21619;-48
2022/11/28 11:25:31;;;;;;;27.62;14.33;;;;;;;4.81;77.65;99696.59;1618139;86;21031;-42
2022/11/28 11:28:02;;;;;;;26.73;14.93;;;;;;;4.72;76.61;99695.98;1672158;86;21018;-48
2022/11/28 11:30:32;;;;;;;33.63;16.62;;;;;;;4.72;77.02;99699.88;1671895;83;20958;-44
2022/11/28 11:33:01;;;;;;;29.50;15.88;;;;;;;4.75;77.57;99698.52;1672282;86;20989;-46
2022/11/28 11:35:34;;;;;;;28.02;15.35;;;;;;;4.77;77.83;99691.51;1672203;86;21013;-53
2022/11/28 11:38:24;;;;;;;28.38;14.75;;;;;;;4.78;77.92;99691.90;1671913;84;21526;-54
2022/11/28 11:40:51;;;;;;;27.98;14.25;;;;;;;4.84;78.14;99693.07;1658744;84;21033;-53
2022/11/28 11:43:30;;;;;;;23.77;13.70;;;;;;;4.80;77.61;99691.41;1672336;84;21502;-47
2022/11/28 11:46:12;;;;;;;26.15;14.55;;;;;;;4.77;77.54;99687.14;1700498;84;21026;-49
2022/11/28 11:48:48;;;;;;;29.07;14.83;;;;;;;4.86;77.64;99682.58;1692639;84;21492;-46
2022/11/28 11:51:29;;;;;;;32.03;15.45;;;;;;;4.93;77.70;99681.53;1693911;85;21581;-51
2022/11/28 11:54:12;;;;;;;26.50;16.23;;;;;;;4.92;77.53;99685.89;1696168;84;21027;-49